Time;durP1;ratioP1;P1;durP2;ratioP2;P2;SDS_P1;SDS_P2;PMS_P1;PMS_P2;Temp;Humidity;BMP_temperature;BMP_pressure;BME280_temperature;BME280_humidity;BME280_pressure;Samples;Min_cycle;Max_cycle;Signal;HPM_P1;HPM_P2
2023/04/06 00:00:53;;;;;;;17.65;9.25;;;2.80;88.60;;;;;;4905066;29;20055;-75
2023/04/06 05:02:13;;;;;;;19.20;11.57;;;0.30;99.90;;;;;;5488105;23;20048;-75
2023/04/06 05:04:58;;;;;;;17.38;10.95;;;0.30;99.90;;;;;;4940915;29;20059;-75
2023/04/06 05:07:29;;;;;;;16.27;10.48;;;0.30;99.90;;;;;;4942925;29;20215;-75
2023/04/06 05:10:12;;;;;;;14.30;9.63;;;0.30;99.90;;;;;;4937753;29;20028;-74
2023/04/06 05:13:07;;;;;;;18.15;10.60;;;0.40;99.70;;;;;;4923802;29;20032;-75
2023/04/06 05:15:38;;;;;;;17.67;10.52;;;0.60;99.40;;;;;;4925206;29;20047;-76
2023/04/06 05:18:35;;;;;;;16.17;10.48;;;0.70;99.10;;;;;;4923551;29;20062;-75
2023/04/06 05:21:34;;;;;;;;;;;;;;;;;;;;;
2023/04/06 05:24:03;;;;;;;13.25;9.45;;;0.80;98.70;;;;;;4946885;29;20032;-73
2023/04/06 05:26:31;;;;;;;15.77;10.77;;;0.90;98.40;;;;;;4947957;29;20336;-75
2023/04/06 05:29:06;;;;;;;17.75;10.85;;;1.00;98.40;;;;;;4939237;29;20062;-72
2023/04/06 05:31:43;;;;;;;18.30;10.95;;;1.00;98.90;;;;;;4947118;29;20095;-73
2023/04/06 05:34:15;;;;;;;20.08;12.18;;;1.10;98.50;;;;;;4946316;29;20317;-73
2023/04/06 05:36:46;;;;;;;20.80;11.23;;;1.20;98.80;;;;;;4933790;29;20028;-73
2023/04/06 05:39:37;;;;;;;15.23;10.18;;;1.20;98.50;;;;;;4912414;29;20128;-73
2023/04/06 05:42:06;;;;;;;17.88;11.10;;;1.20;98.50;;;;;;4920690;29;20055;-74
2023/04/06 05:44:59;;;;;;;16.35;10.13;;;1.20;98.60;;;;;;4918059;29;20036;-74
2023/04/06 05:47:49;;;;;;;18.30;10.23;;;1.30;98.40;;;;;;4924635;29;20098;-74
2023/04/06 05:50:28;;;;;;;18.08;10.35;;;1.30;98.40;;;;;;4927106;29;20027;-73
2023/04/06 05:52:55;;;;;;;22.02;11.63;;;1.40;98.70;;;;;;4927633;29;20211;-73
2023/04/06 05:55:51;;;;;;;20.65;11.25;;;1.50;98.30;;;;;;4928236;29;20301;-72
2023/04/06 06:02:01;;;;;;;20.27;10.90;;;1.70;97.80;;;;;;4928574;29;20115;-73
2023/04/06 06:04:30;;;;;;;19.40;10.88;;;1.80;97.70;;;;;;4892665;29;20028;-74
2023/04/06 06:07:00;;;;;;;21.13;10.63;;;1.80;97.50;;;;;;4908379;29;20313;-74
2023/04/06 06:09:35;;;;;;;20.05;10.90;;;1.90;97.30;;;;;;4908423;29;20055;-75
2023/04/06 06:12:43;;;;;;;17.65;9.98;;;2.00;97.00;;;;;;4908091;29;20044;-75
2023/04/06 06:15:22;;;;;;;15.90;9.47;;;2.10;96.70;;;;;;4908985;29;20342;-74
2023/04/06 06:17:51;;;;;;;16.60;9.88;;;2.20;96.50;;;;;;4908108;29;20041;-74
2023/04/06 06:24:35;;;;;;;22.55;9.82;;;2.40;96.10;;;;;;4870306;29;20346;-75
2023/04/06 06:27:45;;;;;;;19.85;10.75;;;2.50;95.70;;;;;;4839796;29;20065;-73
2023/04/06 06:30:27;;;;;;;18.85;10.65;;;2.60;95.50;;;;;;4799352;29;20277;-74
2023/04/06 06:33:16;;;;;;;20.00;10.73;;;2.70;95.40;;;;;;4823082;29;20037;-74
2023/04/06 06:35:52;;;;;;;21.02;10.82;;;2.70;95.30;;;;;;4869931;29;20048;-73
2023/04/06 06:38:21;;;;;;;20.85;11.05;;;2.90;95.20;;;;;;4887664;29;20131;-74
2023/04/06 06:40:50;;;;;;;22.17;11.95;;;2.90;94.70;;;;;;4857386;29;20029;-74
2023/04/06 06:43:18;;;;;;;20.17;11.90;;;3.00;94.70;;;;;;4852573;29;20108;-74
2023/04/06 06:46:14;;;;;;;17.55;9.98;;;3.10;94.50;;;;;;4871677;29;20061;-74
2023/04/06 06:48:52;;;;;;;18.55;11.43;;;3.20;94.40;;;;;;4872536;29;20156;-74
2023/04/06 06:51:18;;;;;;;16.15;10.63;;;3.20;94.20;;;;;;4872194;29;20105;-74
2023/04/06 06:54:07;;;;;;;18.65;10.63;;;3.30;93.90;;;;;;4888033;29;20062;-75
2023/04/06 06:56:37;;;;;;;19.65;9.75;;;3.30;93.80;;;;;;4879145;29;20055;-74
2023/04/06 06:59:09;;;;;;;17.08;10.57;;;3.40;93.80;;;;;;4891010;29;20064;-75
2023/04/06 07:01:51;;;;;;;20.20;10.88;;;3.50;93.30;;;;;;4890984;29;20059;-73
2023/04/06 07:04:18;;;;;;;20.35;11.27;;;3.50;93.30;;;;;;4891946;29;20075;-73
2023/04/06 07:07:32;;;;;;;17.27;11.20;;;3.60;93.20;;;;;;4907402;29;20100;-73
2023/04/06 07:10:11;;;;;;;22.33;11.85;;;3.70;93.00;;;;;;4890703;29;20096;-73
2023/04/06 07:12:40;;;;;;;19.92;11.73;;;3.90;92.70;;;;;;4906847;29;20043;-73
2023/04/06 07:15:30;;;;;;;21.67;11.27;;;3.90;92.50;;;;;;4891888;29;20063;-74
2023/04/06 07:18:21;;;;;;;23.00;12.23;;;3.90;92.20;;;;;;4908442;29;20060;-74
2023/04/06 07:21:01;;;;;;;25.40;13.02;;;4.10;92.20;;;;;;4907886;29;20060;-74
2023/04/06 07:23:27;;;;;;;19.30;11.77;;;4.10;92.20;;;;;;4891083;29;20024;-75
2023/04/06 07:25:58;;;;;;;23.58;11.98;;;4.30;91.90;;;;;;4908179;29;20036;-75
2023/04/06 07:28:41;;;;;;;17.73;11.02;;;4.50;91.70;;;;;;4891971;29;20031;-74
2023/04/06 07:31:11;;;;;;;20.38;11.02;;;4.60;91.60;;;;;;4903326;29;20056;-75
2023/04/06 07:33:37;;;;;;;19.63;10.93;;;4.70;91.30;;;;;;4906339;29;20062;-74
2023/04/06 07:36:03;;;;;;;15.27;10.63;;;4.80;91.30;;;;;;4889604;29;20041;-74
2023/04/06 07:38:29;;;;;;;19.20;10.60;;;4.90;91.10;;;;;;4906397;29;20040;-74
2023/04/06 07:41:33;;;;;;;20.38;11.23;;;4.90;90.80;;;;;;4893346;29;20040;-74
2023/04/06 07:44:25;;;;;;;16.15;10.60;;;5.20;90.80;;;;;;4900560;29;20228;-75
2023/04/06 07:47:12;;;;;;;15.75;10.02;;;5.30;90.40;;;;;;4907556;29;20037;-74
2023/04/06 07:49:47;;;;;;;15.05;9.75;;;5.40;90.20;;;;;;4889921;29;20068;-75
2023/04/06 07:52:42;;;;;;;15.68;10.27;;;5.60;90.00;;;;;;4903311;29;20142;-75
2023/04/06 07:55:12;;;;;;;19.63;10.95;;;5.80;89.50;;;;;;4885992;29;20040;-75
2023/04/06 07:57:50;;;;;;;16.38;10.05;;;6.00;89.20;;;;;;4907374;29;20036;-75
2023/04/06 08:00:20;;;;;;;16.50;9.52;;;6.10;88.70;;;;;;4906152;29;20035;-75
2023/04/06 08:03:07;;;;;;;16.17;10.88;;;6.30;88.20;;;;;;4914244;29;20051;-74
2023/04/06 08:05:33;;;;;;;16.00;10.13;;;6.40;87.10;;;;;;4870655;29;20108;-75
2023/04/06 08:07:59;;;;;;;18.13;11.20;;;6.60;86.80;;;;;;4871454;29;20053;-75
2023/04/06 08:10:27;;;;;;;19.73;10.25;;;6.60;86.10;;;;;;4907141;29;20100;-74
2023/04/06 08:12:53;;;;;;;17.90;10.35;;;6.70;85.80;;;;;;4931819;29;20032;-74
2023/04/06 08:15:26;;;;;;;18.92;10.90;;;6.80;85.70;;;;;;4930242;29;20031;-75
2023/04/06 08:17:57;;;;;;;19.42;10.82;;;6.90;85.70;;;;;;4930065;29;20040;-74
2023/04/06 08:20:28;;;;;;;17.63;10.27;;;7.10;85.20;;;;;;4926036;29;20048;-75
2023/04/06 08:23:27;;;;;;;16.25;9.93;;;7.20;84.90;;;;;;4925970;29;20115;-75
2023/04/06 08:25:58;;;;;;;17.38;10.80;;;7.40;83.70;;;;;;4925148;29;20190;-74
2023/04/06 08:28:43;;;;;;;17.17;10.60;;;7.60;83.60;;;;;;4908920;29;20246;-73
2023/04/06 08:31:11;;;;;;;18.23;10.73;;;7.70;83.20;;;;;;4924576;29;20043;-73
2023/04/06 08:33:39;;;;;;;21.00;10.00;;;7.80;82.40;;;;;;4925300;29;20163;-74
2023/04/06 08:36:24;;;;;;;17.10;9.90;;;8.00;82.80;;;;;;4908959;29;20031;-75
2023/04/06 08:38:59;;;;;;;17.52;9.55;;;8.30;82.20;;;;;;4925773;29;20036;-75
2023/04/06 08:41:38;;;;;;;17.15;10.27;;;8.50;81.40;;;;;;4924313;29;20040;-74
2023/04/06 08:44:06;;;;;;;;;;;8.70;80.70;;;;;;4926182;29;20063;-76
2023/04/06 08:46:35;;;;;;;17.73;9.57;;;8.90;80.90;;;;;;4924069;29;19913;-76
2023/04/06 08:49:22;;;;;;;14.82;9.40;;;9.00;79.60;;;;;;4909245;29;20035;-75
2023/04/06 08:51:51;;;;;;;15.93;9.45;;;9.20;78.40;;;;;;4925926;29;20140;-74
2023/04/06 08:54:18;;;;;;;16.13;9.95;;;9.30;78.70;;;;;;4923798;29;20016;-75
2023/04/06 08:56:48;;;;;;;16.88;9.23;;;9.30;77.40;;;;;;4924477;29;20099;-74
2023/04/06 08:59:34;;;;;;;15.40;9.70;;;9.40;77.40;;;;;;4924329;29;20088;-74
2023/04/06 09:02:24;;;;;;;14.75;8.60;;;9.40;77.40;;;;;;4920882;29;20044;-76
2023/04/06 09:04:53;;;;;;;18.67;10.18;;;9.60;76.30;;;;;;4907939;29;20372;-75
2023/04/06 09:07:20;;;;;;;15.68;9.20;;;9.60;76.40;;;;;;4924381;29;20103;-75
2023/04/06 09:09:51;;;;;;;12.85;8.00;;;9.80;74.80;;;;;;4925552;29;20115;-74
2023/04/06 09:12:23;;;;;;;12.98;8.73;;;10.00;72.60;;;;;;4925839;29;20024;-73
2023/04/06 09:14:49;;;;;;;12.73;8.27;;;10.10;72.70;;;;;;4925682;29;20035;-73
2023/04/06 09:17:29;;;;;;;17.00;9.13;;;10.30;73.00;;;;;;4924248;29;20028;-73
2023/04/06 09:20:57;;;;;;;14.45;8.27;;;10.50;70.90;;;;;;4924825;29;20087;-74
2023/04/06 09:23:23;;;;;;;14.65;7.82;;;10.50;68.20;;;;;;4924802;29;20344;-74
2023/04/06 09:25:49;;;;;;;14.55;8.77;;;10.50;67.00;;;;;;4908559;29;20338;-73
2023/04/06 09:29:06;;;;;;;13.95;8.80;;;10.50;67.10;;;;;;4908129;29;20063;-74
2023/04/06 09:31:33;;;;;;;11.88;8.18;;;10.70;68.10;;;;;;4915682;29;20115;-76
2023/04/06 09:34:01;;;;;;;11.88;8.25;;;10.70;65.60;;;;;;4924396;29;20044;-75
2023/04/06 09:37:02;;;;;;;14.10;8.55;;;10.60;65.70;;;;;;4909592;29;20372;-74
2023/04/06 09:39:32;;;;;;;12.88;8.70;;;10.60;63.20;;;;;;4923627;29;20103;-74
2023/04/06 09:41:58;;;;;;;12.93;8.57;;;10.60;64.20;;;;;;4923619;29;20275;-75
2023/04/06 09:44:57;;;;;;;12.98;7.85;;;10.80;64.20;;;;;;4923764;29;20024;-75
2023/04/06 09:50:27;;;;;;;13.00;7.85;;;11.30;62.10;;;;;;4924208;29;20317;-73
2023/04/06 09:53:02;;;;;;;12.20;6.82;;;11.50;62.00;;;;;;4908474;29;20113;-74
2023/04/06 09:56:05;;;;;;;9.73;6.63;;;11.80;60.50;;;;;;4923492;29;20225;-74
2023/04/06 09:58:36;;;;;;;14.10;8.02;;;11.90;59.20;;;;;;4922871;29;20048;-73
2023/04/06 10:01:18;;;;;;;11.65;6.90;;;12.00;59.60;;;;;;4925114;29;20310;-74
2023/04/06 10:04:12;;;;;;;8.60;5.40;;;12.00;59.00;;;;;;4922771;29;20207;-73
2023/04/06 10:06:41;;;;;;;9.23;5.47;;;12.00;58.00;;;;;;4925554;29;20271;-74
2023/04/06 10:09:23;;;;;;;9.90;5.90;;;12.10;58.20;;;;;;4928086;29;20036;-74
2023/04/06 10:12:05;;;;;;;11.27;5.35;;;12.10;58.20;;;;;;4928764;29;20036;-74
2023/04/06 10:14:40;;;;;;;8.57;5.22;;;12.20;57.60;;;;;;4910764;29;20044;-74
2023/04/06 10:17:12;;;;;;;8.45;5.68;;;12.20;57.70;;;;;;4928820;29;20119;-73
2023/04/06 10:19:55;;;;;;;10.70;5.90;;;12.30;56.90;;;;;;4927891;29;20330;-74
2023/04/06 10:22:36;;;;;;;10.82;6.30;;;12.40;56.80;;;;;;4897023;29;20040;-74
2023/04/06 10:25:01;;;;;;;9.20;6.03;;;12.40;55.90;;;;;;4928552;29;20032;-74
2023/04/06 10:27:33;;;;;;;9.75;5.68;;;12.60;57.00;;;;;;4926810;29;20082;-75
2023/04/06 10:30:16;;;;;;;10.40;6.55;;;12.70;57.40;;;;;;4926867;29;20234;-75
2023/04/06 10:32:45;;;;;;;9.63;6.07;;;12.60;56.50;;;;;;4926949;29;20250;-74
2023/04/06 10:35:18;;;;;;;8.32;5.55;;;12.50;56.30;;;;;;4927306;29;20091;-72
2023/04/06 10:38:02;;;;;;;8.98;5.93;;;12.70;56.70;;;;;;4928119;29;20051;-75
2023/04/06 10:40:34;;;;;;;8.95;6.28;;;12.80;55.70;;;;;;4927579;29;20058;-75
2023/04/06 10:43:25;;;;;;;8.27;5.25;;;12.90;55.70;;;;;;4927354;29;20040;-75
2023/04/06 10:46:27;;;;;;;8.75;5.88;;;13.00;55.10;;;;;;4926694;29;20036;-75
2023/04/06 10:49:12;;;;;;;11.15;5.90;;;13.00;55.00;;;;;;4927152;29;20040;-73
2023/04/06 10:51:44;;;;;;;10.50;5.47;;;13.10;55.00;;;;;;4926347;29;20032;-74
2023/04/06 10:54:23;;;;;;;9.05;5.85;;;13.20;55.10;;;;;;4928373;29;20036;-76
2023/04/06 10:56:49;;;;;;;9.52;5.82;;;13.30;54.50;;;;;;4927755;29;20246;-74
2023/04/06 10:59:25;;;;;;;10.50;6.47;;;13.40;55.20;;;;;;4927864;29;20044;-76
2023/04/06 11:02:22;;;;;;;9.70;5.50;;;13.50;54.40;;;;;;4908167;29;20039;-75
2023/04/06 11:05:01;;;;;;;8.90;5.78;;;13.80;54.40;;;;;;4922470;29;20044;-75
2023/04/06 11:07:30;;;;;;;8.98;5.57;;;14.00;53.80;;;;;;4927956;29;20340;-74
2023/04/06 11:10:24;;;;;;;8.45;5.65;;;14.10;54.20;;;;;;4927637;29;20047;-75
2023/04/06 11:13:05;;;;;;;8.43;5.68;;;14.40;54.00;;;;;;4919350;29;20048;-74
2023/04/06 11:15:35;;;;;;;7.55;5.05;;;15.00;52.60;;;;;;4925831;29;20056;-75
2023/04/06 11:18:04;;;;;;;8.90;5.38;;;15.20;51.70;;;;;;4925800;29;20036;-76
2023/04/06 11:20:57;;;;;;;8.70;5.60;;;15.50;50.80;;;;;;4925392;29;20103;-77
2023/04/06 11:23:34;;;;;;;8.77;5.18;;;16.40;50.80;;;;;;4926433;29;20059;-74
2023/04/06 11:26:00;;;;;;;6.15;4.53;;;17.60;49.00;;;;;;4927795;29;20081;-73
2023/04/06 11:28:26;;;;;;;6.88;5.30;;;18.40;47.90;;;;;;4927422;29;20310;-75
2023/04/06 11:31:00;;;;;;;7.90;5.38;;;19.20;46.50;;;;;;4926361;29;20100;-74
2023/04/06 11:33:38;;;;;;;7.68;5.07;;;19.70;46.00;;;;;;4906696;29;20059;-75
2023/04/06 11:36:20;;;;;;;8.65;5.38;;;19.80;46.60;;;;;;4891503;29;20040;-75
2023/04/06 11:38:46;;;;;;;8.30;5.00;;;20.50;45.30;;;;;;4923300;29;20032;-74
2023/04/06 11:41:15;;;;;;;7.63;4.72;;;21.10;45.30;;;;;;4926968;29;20039;-75
2023/04/06 11:43:47;;;;;;;6.97;5.05;;;21.70;43.60;;;;;;4926717;29;20079;-76
2023/04/06 11:46:25;;;;;;;6.60;4.75;;;21.90;42.60;;;;;;4927170;29;20340;-74
2023/04/06 11:48:59;;;;;;;5.55;4.60;;;22.30;43.00;;;;;;4925639;29;20099;-75
2023/04/06 11:51:47;;;;;;;6.60;4.93;;;23.00;42.70;;;;;;4910443;29;20036;-76
2023/04/06 11:54:41;;;;;;;6.13;4.50;;;23.40;41.00;;;;;;4914661;29;20040;-75
2023/04/06 11:57:24;;;;;;;7.50;4.65;;;23.50;41.70;;;;;;4927117;29;20128;-76
2023/04/06 12:00:02;;;;;;;8.27;4.93;;;24.00;41.30;;;;;;4905844;29;20613;-74
2023/04/06 12:02:33;;;;;;;6.30;4.35;;;24.00;40.60;;;;;;4919927;29;20080;-75
2023/04/06 12:05:08;;;;;;;5.78;4.88;;;23.80;41.00;;;;;;4906314;29;20044;-75
2023/04/06 12:07:45;;;;;;;6.57;4.80;;;23.80;40.10;;;;;;4890881;29;20029;-74
2023/04/06 12:10:15;;;;;;;8.48;4.82;;;24.10;39.20;;;;;;4907006;29;20052;-75
2023/04/06 12:12:43;;;;;;;6.10;4.97;;;24.10;39.30;;;;;;4907477;29;20311;-76
2023/04/06 12:15:09;;;;;;;6.53;4.80;;;23.90;39.60;;;;;;4907316;29;20036;-73
2023/04/06 12:17:36;;;;;;;5.63;4.45;;;24.50;40.10;;;;;;4906607;29;20127;-75
2023/04/06 12:20:02;;;;;;;6.68;4.60;;;24.70;39.00;;;;;;4907984;29;20047;-73
2023/04/06 12:22:41;;;;;;;6.05;4.22;;;25.50;38.80;;;;;;4905269;29;20040;-73
2023/04/06 12:25:15;;;;;;;5.50;3.95;;;25.70;38.10;;;;;;4922753;29;20084;-74
2023/04/06 12:28:01;;;;;;;4.95;3.97;;;25.80;39.00;;;;;;4905903;29;20040;-74
2023/04/06 12:30:30;;;;;;;4.72;3.80;;;26.00;37.90;;;;;;4907792;29;20040;-73
2023/04/06 12:32:55;;;;;;;5.80;4.10;;;26.30;39.20;;;;;;4907616;29;20039;-74
2023/04/06 12:35:24;;;;;;;6.40;3.85;;;25.80;37.00;;;;;;4908343;29;20031;-75
2023/04/06 12:37:50;;;;;;;6.47;3.92;;;25.80;36.90;;;;;;4907138;29;20059;-73
2023/04/06 12:40:38;;;;;;;6.68;4.20;;;26.70;37.30;;;;;;4907314;29;20036;-76
2023/04/06 12:43:28;;;;;;;5.32;3.63;;;26.60;37.30;;;;;;4908215;29;20068;-75
2023/04/06 12:45:56;;;;;;;5.55;4.00;;;25.80;37.70;;;;;;4906544;29;20393;-75
2023/04/06 12:48:22;;;;;;;4.93;3.20;;;26.00;37.00;;;;;;4907343;29;20104;-74
2023/04/06 12:51:17;;;;;;;4.78;3.40;;;26.70;37.40;;;;;;4906691;29;20029;-74
2023/04/06 12:54:05;;;;;;;6.00;4.15;;;27.00;36.60;;;;;;4855007;29;20349;-74
2023/04/06 13:00:53;;;;;;;6.43;3.78;;;28.50;35.70;;;;;;4812435;29;20062;-73
2023/04/06 13:03:22;;;;;;;5.80;4.53;;;28.10;35.70;;;;;;4823847;29;20336;-74
2023/04/06 13:05:51;;;;;;;5.55;4.18;;;28.20;35.60;;;;;;4830951;29;20045;-74
2023/04/06 13:08:19;;;;;;;6.10;3.63;;;28.00;35.60;;;;;;4831546;29;20046;-74
2023/04/06 13:11:00;;;;;;;4.50;3.60;;;28.20;35.70;;;;;;4830836;29;20136;-72
2023/04/06 13:13:28;;;;;;;5.38;4.20;;;28.50;37.50;;;;;;4831517;29;20055;-73
2023/04/06 13:16:04;;;;;;;5.43;3.85;;;28.80;35.10;;;;;;4831164;29;20030;-74
2023/04/06 13:18:34;;;;;;;5.43;3.30;;;28.60;35.20;;;;;;4831411;29;20042;-73
2023/04/06 13:21:04;;;;;;;5.57;3.78;;;28.30;37.40;;;;;;4830872;29;20190;-74
2023/04/06 13:23:36;;;;;;;5.30;3.95;;;28.30;35.00;;;;;;4831437;29;20065;-74
2023/04/06 13:26:16;;;;;;;5.93;4.28;;;28.00;35.20;;;;;;4831260;29;20038;-74
2023/04/06 13:28:45;;;;;;;6.43;4.13;;;27.00;35.30;;;;;;4830692;29;20054;-74
2023/04/06 13:31:22;;;;;;;6.13;4.78;;;25.70;37.60;;;;;;4848740;29;20030;-75
2023/04/06 13:33:48;;;;;;;6.60;4.40;;;26.10;35.60;;;;;;4867415;29;20045;-74
2023/04/06 13:36:14;;;;;;;5.60;4.20;;;25.70;36.00;;;;;;4906713;29;20040;-74
2023/04/06 13:38:41;;;;;;;;;;;26.60;38.70;;;;;;4905365;29;20049;-75
2023/04/06 13:41:07;;;;;;;5.80;4.22;;;27.60;35.60;;;;;;4906006;29;19910;-73
2023/04/06 13:43:33;;;;;;;5.75;4.22;;;27.10;35.80;;;;;;4910386;29;20048;-73
2023/04/06 13:46:11;;;;;;;5.45;3.58;;;26.90;35.70;;;;;;4908484;29;20033;-73
2023/04/06 13:48:37;;;;;;;5.88;4.65;;;26.80;36.20;;;;;;4909755;29;20227;-75
2023/04/06 13:51:15;;;;;;;6.32;4.57;;;26.60;36.10;;;;;;4910575;29;20041;-74
2023/04/06 13:53:41;;;;;;;5.95;4.18;;;26.80;35.90;;;;;;4910092;29;20299;-75
2023/04/06 13:56:07;;;;;;;6.43;4.53;;;26.70;35.20;;;;;;4910460;29;20031;-73
2023/04/06 13:58:36;;;;;;;7.43;4.20;;;26.90;35.50;;;;;;4910011;29;20080;-74
2023/04/06 14:01:06;;;;;;;6.80;4.80;;;26.60;35.40;;;;;;4909215;29;20099;-74
2023/04/06 14:03:33;;;;;;;6.07;4.38;;;25.60;36.80;;;;;;4921736;29;20161;-74
2023/04/06 14:05:59;;;;;;;5.95;4.40;;;24.70;37.00;;;;;;4928708;29;20044;-74
2023/04/06 14:08:25;;;;;;;5.22;3.90;;;24.00;37.90;;;;;;4923566;29;20062;-74
2023/04/06 14:10:55;;;;;;;6.25;4.60;;;23.60;37.30;;;;;;4928191;29;20036;-74
2023/04/06 14:13:35;;;;;;;8.35;5.28;;;23.10;38.10;;;;;;4928890;29;20031;-74
2023/04/06 14:16:11;;;;;;;7.03;4.93;;;22.70;37.80;;;;;;4911188;29;20070;-73
2023/04/06 14:18:40;;;;;;;7.10;4.35;;;22.50;39.10;;;;;;4928722;29;20251;-74
2023/04/06 14:21:26;;;;;;;7.20;4.43;;;22.70;38.70;;;;;;4928372;29;20039;-74
2023/04/06 14:23:56;;;;;;;5.97;4.65;;;22.20;38.30;;;;;;4926762;29;20242;-73
2023/04/06 14:26:29;;;;;;;6.95;4.25;;;21.90;38.60;;;;;;4911515;29;20043;-75
2023/04/06 14:29:17;;;;;;;6.85;4.55;;;21.80;38.90;;;;;;4927813;29;20036;-73
2023/04/06 14:32:07;;;;;;;6.60;4.15;;;22.00;38.60;;;;;;4926210;29;20278;-74
2023/04/06 14:34:39;;;;;;;8.63;4.75;;;22.80;39.00;;;;;;4927076;29;20052;-75
2023/04/06 14:37:06;;;;;;;6.72;4.18;;;23.60;37.90;;;;;;4927784;29;20032;-74
2023/04/06 14:39:32;;;;;;;6.55;4.15;;;24.50;37.10;;;;;;4926045;29;20067;-75
2023/04/06 14:41:58;;;;;;;5.78;3.90;;;24.80;39.80;;;;;;4927819;29;20095;-74
2023/04/06 14:44:44;;;;;;;7.07;4.38;;;25.60;38.40;;;;;;4928216;29;20072;-75
2023/04/06 14:47:15;;;;;;;6.57;4.50;;;26.20;36.40;;;;;;4928143;29;20329;-75
2023/04/06 14:49:44;;;;;;;5.90;4.45;;;26.70;35.60;;;;;;4926279;29;20063;-75
2023/04/06 14:52:15;;;;;;;6.72;4.20;;;26.30;35.60;;;;;;4927111;29;20032;-73
2023/04/06 14:54:44;;;;;;;6.13;4.30;;;26.20;35.70;;;;;;4927615;29;20039;-75
2023/04/06 14:57:10;;;;;;;6.95;4.22;;;25.70;35.90;;;;;;4926918;29;20039;-74
2023/04/06 14:59:35;;;;;;;6.00;4.20;;;24.90;36.60;;;;;;4928072;29;20032;-74
2023/04/06 15:02:04;;;;;;;6.97;4.32;;;24.50;36.90;;;;;;4926765;29;20555;-74
2023/04/06 15:04:30;;;;;;;6.13;4.35;;;25.00;37.80;;;;;;4927981;29;20199;-74
2023/04/06 15:06:56;;;;;;;7.90;4.68;;;25.50;36.40;;;;;;4927208;29;20075;-74
2023/04/06 15:09:22;;;;;;;6.43;4.47;;;25.30;37.00;;;;;;4927836;29;20028;-75
2023/04/06 15:11:48;;;;;;;7.10;4.80;;;25.10;36.60;;;;;;4910689;29;20111;-75
2023/04/06 15:14:13;;;;;;;5.78;4.25;;;24.80;36.30;;;;;;4927631;29;20306;-74
2023/04/06 15:16:39;;;;;;;6.18;4.43;;;24.00;36.70;;;;;;4927836;29;20299;-74
2023/04/06 15:19:05;;;;;;;6.10;4.55;;;23.20;37.30;;;;;;4927253;29;20051;-76
2023/04/06 15:21:32;;;;;;;7.53;4.50;;;22.90;38.40;;;;;;4927786;29;20043;-74
2023/04/06 15:23:57;;;;;;;6.30;4.68;;;22.70;38.60;;;;;;4927214;29;20039;-74
2023/04/06 15:26:23;;;;;;;7.68;4.60;;;22.00;38.30;;;;;;4926451;29;20314;-73
2023/04/06 15:28:49;;;;;;;8.23;4.18;;;21.60;39.40;;;;;;4927059;29;20133;-74
2023/04/06 15:31:16;;;;;;;6.32;4.25;;;21.30;41.50;;;;;;4927599;29;20310;-74
2023/04/06 15:33:42;;;;;;;7.88;4.57;;;21.20;40.40;;;;;;4927597;29;20059;-72
2023/04/06 15:36:29;;;;;;;6.60;4.07;;;21.20;40.10;;;;;;4927129;29;20032;-75
2023/04/06 15:38:56;;;;;;;6.63;4.18;;;21.00;41.00;;;;;;4926575;29;20067;-72
2023/04/06 15:41:28;;;;;;;7.00;4.63;;;20.90;40.00;;;;;;4927296;29;20032;-73
2023/04/06 15:44:00;;;;;;;7.28;4.20;;;20.80;40.20;;;;;;4926942;29;20047;-73
2023/04/06 15:46:26;;;;;;;6.22;4.57;;;20.50;40.90;;;;;;4925807;29;20075;-75
2023/04/06 15:48:52;;;;;;;8.20;4.70;;;20.00;41.80;;;;;;4926658;29;20239;-73
2023/04/06 15:51:18;;;;;;;6.35;4.57;;;19.80;40.70;;;;;;4926957;29;20047;-75
2023/04/06 15:53:47;;;;;;;6.63;4.40;;;19.60;41.40;;;;;;4927150;29;20028;-76
2023/04/06 15:56:13;;;;;;;7.78;4.32;;;19.50;41.20;;;;;;4926876;29;20310;-75
2023/04/06 15:58:39;;;;;;;6.97;4.35;;;19.40;41.10;;;;;;4927038;29;20107;-74
2023/04/06 16:01:12;;;;;;;7.28;5.00;;;19.20;41.50;;;;;;4926298;29;20297;-74
2023/04/06 16:03:37;;;;;;;7.45;4.72;;;18.90;42.10;;;;;;4924934;29;20214;-74
2023/04/06 16:06:03;;;;;;;7.18;4.80;;;18.60;41.90;;;;;;4926388;29;20055;-75
2023/04/06 16:08:29;;;;;;;7.35;4.35;;;18.40;42.20;;;;;;4925778;29;20267;-75
2023/04/06 16:10:55;;;;;;;7.90;4.63;;;18.50;43.90;;;;;;4926286;29;20043;-74
2023/04/06 16:13:21;;;;;;;8.35;5.20;;;18.50;42.80;;;;;;4926538;29;20076;-75
2023/04/06 16:15:50;;;;;;;7.85;4.80;;;18.60;42.70;;;;;;4926284;29;20357;-74
2023/04/06 16:18:17;;;;;;;7.50;4.97;;;18.40;44.40;;;;;;4925199;29;20415;-74
2023/04/06 16:20:43;;;;;;;9.43;4.90;;;18.30;44.00;;;;;;4926424;29;20044;-75
2023/04/06 16:23:09;;;;;;;7.75;4.93;;;18.40;43.40;;;;;;4926533;29;20041;-76
2023/04/06 16:25:35;;;;;;;7.85;4.93;;;17.90;43.30;;;;;;4926515;29;20051;-75
2023/04/06 16:28:00;;;;;;;8.90;4.78;;;17.60;43.60;;;;;;4925076;29;20038;-75
2023/04/06 16:30:39;;;;;;;8.35;5.10;;;17.40;43.90;;;;;;4926561;29;20040;-74
2023/04/06 16:33:04;;;;;;;7.82;4.72;;;16.90;44.30;;;;;;4925923;29;20055;-74
2023/04/06 16:35:30;;;;;;;7.25;4.88;;;16.70;44.80;;;;;;4926961;29;20036;-75
2023/04/06 16:37:56;;;;;;;8.23;5.07;;;16.40;45.30;;;;;;4930853;29;20047;-75
2023/04/06 16:40:22;;;;;;;8.35;5.13;;;16.20;45.80;;;;;;4929844;29;20215;-74
2023/04/06 16:42:47;;;;;;;8.75;5.25;;;16.00;45.70;;;;;;4927252;29;20047;-75
2023/04/06 16:45:14;;;;;;;6.90;4.60;;;15.80;46.30;;;;;;4925622;29;20047;-74
2023/04/06 16:47:40;;;;;;;7.70;4.82;;;15.70;46.20;;;;;;4926475;29;20012;-74
2023/04/06 16:50:06;;;;;;;8.13;5.80;;;15.60;47.90;;;;;;4924665;29;20055;-73
2023/04/06 16:52:32;;;;;;;11.18;5.82;;;15.40;47.10;;;;;;4926315;29;20044;-73
2023/04/06 16:54:58;;;;;;;10.32;6.00;;;15.30;48.00;;;;;;4925826;29;20059;-73
2023/04/06 16:57:28;;;;;;;11.82;6.47;;;15.20;48.60;;;;;;4926333;29;20024;-74
2023/04/06 16:59:57;;;;;;;9.30;6.18;;;15.00;48.60;;;;;;4925576;29;20329;-74
2023/04/06 17:02:23;;;;;;;10.27;6.47;;;14.90;49.60;;;;;;4925671;29;20089;-74
2023/04/06 17:04:49;;;;;;;9.50;6.50;;;14.90;48.80;;;;;;4925719;29;20104;-74
2023/04/06 17:07:15;;;;;;;12.27;7.18;;;14.90;50.20;;;;;;4924809;29;20191;-73
2023/04/06 17:09:41;;;;;;;13.25;7.13;;;14.80;50.80;;;;;;4925759;29;20229;-74
2023/04/06 17:12:08;;;;;;;11.13;6.97;;;14.60;51.60;;;;;;4925404;29;20042;-77
2023/04/06 17:15:03;;;;;;;10.48;6.65;;;14.50;52.10;;;;;;4926224;29;20344;-74
2023/04/06 17:17:49;;;;;;;8.75;5.88;;;14.20;53.00;;;;;;4929712;29;20214;-74
2023/04/06 17:20:15;;;;;;;10.48;6.13;;;14.00;53.10;;;;;;4927830;29;20107;-74
2023/04/06 17:22:50;;;;;;;9.70;5.57;;;13.90;52.30;;;;;;4927326;29;20028;-73
2023/04/06 17:25:31;;;;;;;8.45;5.32;;;13.80;52.00;;;;;;4928172;29;20036;-72
2023/04/06 17:28:09;;;;;;;8.20;5.00;;;13.60;50.90;;;;;;4929078;29;20028;-76
2023/04/06 17:31:01;;;;;;;8.63;5.27;;;13.50;50.60;;;;;;4928321;29;20064;-75
2023/04/06 17:33:31;;;;;;;8.82;5.10;;;13.40;50.50;;;;;;4929921;29;20463;-74
2023/04/06 17:36:11;;;;;;;8.73;4.55;;;13.20;50.80;;;;;;4927992;29;20064;-72
2023/04/06 17:38:42;;;;;;;8.88;4.45;;;13.20;50.50;;;;;;4927522;29;20318;-73
2023/04/06 17:41:20;;;;;;;9.57;4.25;;;13.10;50.60;;;;;;4927895;29;20039;-74
2023/04/06 17:43:50;;;;;;;;;;;13.00;50.60;;;;;;4929193;29;20076;-74
2023/04/06 17:46:20;;;;;;;8.50;4.50;;;13.00;51.00;;;;;;4927407;29;20078;-75
2023/04/06 17:48:59;;;;;;;7.45;4.07;;;12.90;50.30;;;;;;4922964;29;20054;-74
2023/04/06 17:51:30;;;;;;;8.55;4.22;;;12.80;50.30;;;;;;4927897;29;20331;-75
2023/04/06 17:54:27;;;;;;;7.45;4.20;;;12.70;50.60;;;;;;4927834;29;20306;-73
2023/04/06 17:57:14;;;;;;;8.63;4.20;;;12.70;50.90;;;;;;4928735;29;20039;-75
2023/04/06 17:59:49;;;;;;;9.98;4.10;;;12.60;51.10;;;;;;4928091;29;20051;-75
2023/04/06 18:02:23;;;;;;;9.52;3.97;;;12.60;51.60;;;;;;4927805;29;20052;-74
2023/04/06 18:04:54;;;;;;;7.85;4.65;;;12.50;52.60;;;;;;4929142;29;20044;-76
2023/04/06 18:07:44;;;;;;;9.07;4.50;;;12.50;52.20;;;;;;4926307;29;20149;-75
2023/04/06 18:10:10;;;;;;;8.90;4.85;;;12.50;52.50;;;;;;4928280;29;20329;-75
2023/04/06 18:12:39;;;;;;;8.45;4.60;;;12.40;52.90;;;;;;4910329;29;20036;-73
2023/04/06 18:15:10;;;;;;;8.82;4.38;;;12.40;53.20;;;;;;4926937;29;20047;-73
2023/04/06 18:18:06;;;;;;;9.57;4.43;;;12.30;53.40;;;;;;4927229;29;20306;-73
2023/04/06 18:20:41;;;;;;;6.93;3.97;;;12.30;53.70;;;;;;4911708;29;20051;-75
2023/04/06 18:23:13;;;;;;;10.23;5.35;;;12.30;54.10;;;;;;4928329;29;20060;-74
2023/04/06 18:25:40;;;;;;;9.88;4.70;;;12.30;54.30;;;;;;4927333;29;20031;-75
2023/04/06 18:28:07;;;;;;;8.82;4.97;;;12.20;54.80;;;;;;4927948;29;20016;-74
2023/04/06 18:30:36;;;;;;;8.23;4.90;;;12.20;55.20;;;;;;4928449;29;20044;-74
2023/04/06 18:33:02;;;;;;;7.97;4.45;;;12.10;55.50;;;;;;4927821;29;20036;-77
2023/04/06 18:36:05;;;;;;;10.02;4.43;;;12.10;55.70;;;;;;4927514;29;20250;-73
2023/04/06 18:38:31;;;;;;;9.15;4.85;;;12.00;55.70;;;;;;4928331;29;20334;-74